Time;durP1;ratioP1;P1;durP2;ratioP2;P2;SDS_P1;SDS_P2;PMS_P1;PMS_P2;Temp;Humidity;BMP_temperature;BMP_pressure;BME280_temperature;BME280_humidity;BME280_pressure;Samples;Min_cycle;Max_cycle;Signal;HPM_P1;HPM_P2
2023/07/04 00:01:59;;;;;;;24.20;2.97;;;;;;;14.51;93.05;100945.66;4996683;28;20054;-87
2023/07/04 00:04:24;;;;;;;13.93;3.00;;;;;;;14.46;92.75;100933.78;4947051;28;20038;-87
2023/07/04 00:06:53;;;;;;;11.00;2.70;;;;;;;14.43;92.95;100935.09;4979148;28;20035;-87
2023/07/04 00:09:19;;;;;;;11.50;2.50;;;;;;;14.47;92.32;100940.94;4979558;28;20422;-87
2023/07/04 00:11:44;;;;;;;21.87;3.37;;;;;;;14.45;92.62;100943.03;4978982;28;20533;-87
2023/07/04 00:14:10;;;;;;;13.57;3.15;;;;;;;14.37;93.38;100939.59;4980029;28;20084;-87
2023/07/04 00:16:35;;;;;;;13.43;2.83;;;;;;;14.37;94.00;100941.50;4995612;28;20041;-87
2023/07/04 00:19:03;;;;;;;17.27;3.37;;;;;;;14.34;93.82;100940.09;4979088;28;20042;-87
2023/07/04 00:21:35;;;;;;;14.77;3.00;;;;;;;14.27;94.16;100928.44;4963912;28;20096;-86
2023/07/04 00:24:01;;;;;;;12.20;3.00;;;;;;;14.29;94.40;100928.22;4978715;28;20038;-87
2023/07/04 00:26:28;;;;;;;13.30;2.90;;;;;;;14.25;94.54;100932.50;4995152;28;20064;-86
2023/07/04 00:28:54;;;;;;;15.45;2.90;;;;;;;14.21;94.69;100930.22;4995087;28;20121;-87
2023/07/04 00:31:23;;;;;;;15.80;3.77;;;;;;;14.18;94.84;100932.63;4978668;28;20526;-87
2023/07/04 00:33:50;;;;;;;16.73;2.88;;;;;;;14.14;95.45;100935.00;4995516;28;20030;-87
2023/07/04 00:36:17;;;;;;;14.73;3.25;;;;;;;14.16;95.39;100940.22;4995238;28;20029;-87
2023/07/04 00:38:44;;;;;;;16.13;3.10;;;;;;;14.16;95.88;100940.22;4995193;28;20041;-87
2023/07/04 00:41:15;;;;;;;16.05;2.75;;;;;;;14.13;96.13;100933.34;4996230;28;20034;-87
2023/07/04 00:44:19;;;;;;;15.93;3.40;;;;;;;14.14;95.90;100945.91;4978440;28;20475;-87
2023/07/04 00:47:10;;;;;;;14.55;3.25;;;;;;;14.23;95.91;100942.81;4989013;28;20075;-87
2023/07/04 00:49:43;;;;;;;21.20;3.40;;;;;;;14.22;96.34;100933.81;4979094;28;20141;-87
2023/07/04 00:52:14;;;;;;;12.80;2.80;;;;;;;14.23;96.83;100942.81;4978228;28;20045;-87
2023/07/04 00:54:44;;;;;;;19.08;3.50;;;;;;;14.19;96.77;100937.03;4994939;28;20034;-87
2023/07/04 00:57:12;;;;;;;32.17;3.50;;;;;;;14.23;96.69;100934.63;4996423;28;20030;-87
2023/07/04 00:59:45;;;;;;;17.50;3.90;;;;;;;14.30;96.60;100936.16;4979087;28;20531;-87
2023/07/04 01:02:15;;;;;;;17.95;3.10;;;;;;;14.32;96.32;100931.31;4995508;28;20081;-86
2023/07/04 01:04:43;;;;;;;19.25;3.03;;;;;;;14.32;96.51;100941.38;4995091;28;20058;-87
2023/07/04 01:07:27;;;;;;;17.80;3.00;;;;;;;14.31;96.27;100948.75;4995512;28;20022;-86
2023/07/04 01:10:43;;;;;;;18.20;3.73;;;;;;;14.30;96.67;100949.00;4977816;28;20041;-87
2023/07/04 01:13:38;;;;;;;19.52;3.22;;;;;;;14.25;97.24;100946.97;4973155;28;20042;-86
2023/07/04 01:16:09;;;;;;;17.77;3.78;;;;;;;14.19;97.92;100948.75;4995834;28;20506;-87
2023/07/04 01:18:37;;;;;;;12.63;3.30;;;;;;;14.16;98.24;100937.50;4978106;28;20390;-87
2023/07/04 01:21:05;;;;;;;14.90;2.90;;;;;;;14.12;98.19;100937.13;4978201;28;20034;-87
2023/07/04 01:23:55;;;;;;;14.70;3.37;;;;;;;14.10;98.63;100939.25;4995667;28;20037;-87
2023/07/04 01:26:31;;;;;;;18.33;3.88;;;;;;;14.07;99.38;100944.34;4995047;28;20026;-87
2023/07/04 01:28:58;;;;;;;21.67;3.90;;;;;;;14.04;99.47;100945.69;4977435;28;20022;-87
2023/07/04 01:31:26;;;;;;;24.20;3.63;;;;;;;14.02;100.00;100956.81;4994907;28;20058;-87
2023/07/04 01:33:55;;;;;;;19.05;3.47;;;;;;;14.06;100.00;100951.72;4995463;28;20077;-87
2023/07/04 01:36:24;;;;;;;16.30;2.97;;;;;;;14.05;100.00;100947.31;4977667;28;20038;-87
2023/07/04 01:38:51;;;;;;;18.52;3.33;;;;;;;14.06;100.00;100939.97;4995320;28;20034;-87
2023/07/04 01:41:19;;;;;;;19.40;2.97;;;;;;;14.04;100.00;100942.94;4994469;28;20034;-88
2023/07/04 01:43:56;;;;;;;21.02;3.40;;;;;;;14.06;100.00;100953.63;4977717;28;20478;-87
2023/07/04 01:46:22;;;;;;;24.00;4.40;;;;;;;14.11;99.93;100954.56;4977214;28;20033;-88
2023/07/04 01:48:47;;;;;;;21.97;4.20;;;;;;;14.10;100.00;100947.44;4977772;28;20031;-87
2023/07/04 01:51:14;;;;;;;15.65;3.03;;;;;;;14.09;100.00;100944.97;4961304;28;20383;-87
2023/07/04 01:53:40;;;;;;;18.33;3.58;;;;;;;14.14;100.00;100947.78;4995151;28;20046;-87
2023/07/04 01:56:08;;;;;;;14.13;3.80;;;;;;;14.16;100.00;100949.22;4993789;28;20057;-87
2023/07/04 01:58:34;;;;;;;18.23;3.53;;;;;;;14.21;100.00;100952.06;4993161;28;20084;-87
2023/07/04 02:00:59;;;;;;;19.63;3.23;;;;;;;14.24;100.00;100956.22;4992927;28;20034;-87
2023/07/04 02:03:25;;;;;;;19.20;3.37;;;;;;;14.24;100.00;100953.50;4961013;28;20030;-87
2023/07/04 02:05:56;;;;;;;16.00;3.38;;;;;;;14.26;100.00;100942.34;4977129;28;20030;-87
2023/07/04 02:08:21;;;;;;;14.23;2.97;;;;;;;14.29;100.00;100944.59;4993429;28;20026;-87
2023/07/04 02:10:49;;;;;;;18.50;3.70;;;;;;;14.30;100.00;100938.88;4994848;28;20042;-87
2023/07/04 02:13:14;;;;;;;16.27;3.50;;;;;;;14.31;100.00;100945.19;4977386;28;20026;-87
2023/07/04 02:15:40;;;;;;;17.23;3.60;;;;;;;14.33;100.00;100943.06;4977032;28;20360;-87
2023/07/04 02:18:08;;;;;;;20.50;4.47;;;;;;;14.32;100.00;100936.78;4994259;28;20034;-87
2023/07/04 02:20:41;;;;;;;15.05;3.63;;;;;;;14.31;100.00;100950.66;4961141;28;20050;-87
2023/07/04 02:23:12;;;;;;;19.70;4.00;;;;;;;14.36;100.00;100937.13;4994484;28;20093;-87
2023/07/04 02:25:51;;;;;;;22.63;3.58;;;;;;;14.34;100.00;100944.72;4960874;28;20038;-87
2023/07/04 02:28:16;;;;;;;15.88;2.95;;;;;;;14.39;100.00;100942.09;4993294;28;20541;-87
2023/07/04 02:30:52;;;;;;;24.17;4.03;;;;;;;14.44;99.88;100946.84;4960383;28;20030;-87
2023/07/04 02:33:17;;;;;;;21.75;4.20;;;;;;;14.41;100.00;100941.84;4994066;28;20467;-87
2023/07/04 02:35:47;;;;;;;14.97;3.23;;;;;;;14.05;100.00;100941.84;4992742;28;20042;-87
2023/07/04 02:38:12;;;;;;;28.60;4.35;;;;;;;13.80;100.00;100947.53;4993047;28;20124;-88
2023/07/04 02:40:43;;;;;;;17.07;3.80;;;;;;;13.74;100.00;100948.47;4992971;28;20117;-88
2023/07/04 02:43:08;;;;;;;19.45;4.13;;;;;;;13.65;100.00;100961.59;4993951;28;20034;-88
2023/07/04 02:45:36;;;;;;;22.30;4.40;;;;;;;13.45;100.00;100951.84;4993889;28;20029;-87
2023/07/04 02:48:02;;;;;;;22.45;4.68;;;;;;;13.33;100.00;100953.63;4960629;28;20038;-87
2023/07/04 02:50:27;;;;;;;27.73;5.82;;;;;;;13.23;100.00;100956.09;4993106;28;20099;-82
2023/07/04 02:52:52;;;;;;;20.23;4.47;;;;;;;13.06;100.00;100961.34;4994233;28;20477;-81
2023/07/04 02:55:18;;;;;;;14.77;4.00;;;;;;;12.82;100.00;100944.88;4977213;28;20031;-81
2023/07/04 02:57:43;;;;;;;18.53;4.40;;;;;;;12.60;100.00;100948.06;4976784;28;20034;-80
2023/07/04 03:00:09;;;;;;;15.70;3.90;;;;;;;12.50;100.00;100950.47;4960604;28;20038;-80
2023/07/04 03:02:35;;;;;;;22.75;4.38;;;;;;;12.46;100.00;100943.84;4994023;28;20069;-81
2023/07/04 03:05:00;;;;;;;17.07;4.53;;;;;;;12.41;100.00;100958.09;4976656;28;20034;-81
2023/07/04 03:07:25;;;;;;;26.23;5.20;;;;;;;12.41;100.00;100957.28;4961088;28;20073;-80
2023/07/04 03:09:51;;;;;;;19.47;5.40;;;;;;;12.39;100.00;100971.09;4976755;28;20285;-80
2023/07/04 03:12:16;;;;;;;22.70;5.90;;;;;;;12.40;100.00;100966.47;4944789;28;20521;-80
2023/07/04 03:14:42;;;;;;;24.43;5.53;;;;;;;12.39;100.00;100956.66;4976645;28;20410;-80
2023/07/04 03:17:07;;;;;;;24.40;6.23;;;;;;;12.36;100.00;100962.56;4976513;28;20034;-80
2023/07/04 03:19:32;;;;;;;23.80;6.20;;;;;;;12.33;100.00;100972.00;4976733;28;20093;-80
2023/07/04 03:21:58;;;;;;;54.42;6.93;;;;;;;12.37;100.00;100961.50;4976488;28;20446;-79
2023/07/04 03:24:23;;;;;;;25.63;5.63;;;;;;;12.36;100.00;100960.66;4944373;28;20038;-79
2023/07/04 03:26:48;;;;;;;27.30;7.23;;;;;;;12.38;100.00;100957.72;4992800;28;20062;-79
2023/07/04 03:29:14;;;;;;;33.73;6.70;;;;;;;12.36;100.00;100968.00;4960135;28;20489;-79
2023/07/04 03:31:42;;;;;;;36.23;6.63;;;;;;;12.32;100.00;100964.88;4977730;28;20042;-79
2023/07/04 03:34:07;;;;;;;27.45;5.88;;;;;;;12.27;100.00;100959.31;4980092;28;20034;-79
2023/07/04 03:36:33;;;;;;;26.40;6.10;;;;;;;12.23;100.00;100968.97;4963675;28;20034;-78
2023/07/04 03:38:58;;;;;;;36.20;6.50;;;;;;;12.20;100.00;100967.50;4980081;28;20031;-80
2023/07/04 03:41:24;;;;;;;23.07;5.80;;;;;;;12.18;100.00;100983.22;4997293;28;20124;-79
2023/07/04 03:43:49;;;;;;;28.45;6.10;;;;;;;12.14;100.00;100970.31;4979863;28;20038;-79
2023/07/04 03:46:14;;;;;;;30.70;6.57;;;;;;;12.11;100.00;100963.41;4963464;28;20114;-79
2023/07/04 03:48:42;;;;;;;27.73;5.57;;;;;;;12.09;100.00;100971.78;4979554;28;20096;-79
2023/07/04 03:51:07;;;;;;;37.10;5.78;;;;;;;12.08;100.00;100978.28;4980151;28;20467;-80
2023/07/04 03:53:37;;;;;;;25.77;5.40;;;;;;;12.09;100.00;100976.38;4979430;28;20042;-79
2023/07/04 03:56:03;;;;;;;27.55;6.38;;;;;;;12.07;100.00;100964.91;4980662;28;20031;-79
2023/07/04 03:58:28;;;;;;;34.83;5.73;;;;;;;12.07;100.00;100967.63;4963445;28;20034;-80
2023/07/04 04:00:54;;;;;;;28.05;5.28;;;;;;;12.04;100.00;100966.19;4979337;28;20041;-80
2023/07/04 04:03:19;;;;;;;29.37;6.23;;;;;;;12.05;100.00;100969.75;4979603;28;20038;-80
2023/07/04 04:05:44;;;;;;;36.33;6.00;;;;;;;12.06;100.00;100974.13;4979230;28;20386;-79
2023/07/04 04:08:10;;;;;;;31.13;6.03;;;;;;;12.09;100.00;100982.69;4996768;28;20517;-80
2023/07/04 04:10:35;;;;;;;27.93;6.20;;;;;;;12.13;100.00;100987.66;4979874;28;20493;-79
2023/07/04 04:13:01;;;;;;;35.33;6.47;;;;;;;12.18;100.00;100976.94;4996474;28;20037;-79
2023/07/04 04:15:27;;;;;;;35.43;6.73;;;;;;;12.20;100.00;100980.28;4996969;28;20061;-79
2023/07/04 04:17:53;;;;;;;36.37;6.50;;;;;;;12.21;100.00;100971.91;4996662;28;20113;-80
2023/07/04 04:20:18;;;;;;;34.55;6.97;;;;;;;12.23;100.00;100979.84;4996681;28;20037;-80
2023/07/04 04:22:45;;;;;;;31.15;6.80;;;;;;;12.21;100.00;100982.78;4979158;28;20039;-80
2023/07/04 04:25:12;;;;;;;37.37;6.03;;;;;;;12.20;100.00;100978.38;4963396;28;20034;-80
2023/07/04 04:27:38;;;;;;;31.30;5.97;;;;;;;12.23;100.00;100977.13;4978823;28;20031;-80
2023/07/04 04:30:08;;;;;;;35.45;7.18;;;;;;;12.22;100.00;100984.47;4978832;28;20034;-80
2023/07/04 04:32:34;;;;;;;36.88;5.82;;;;;;;12.22;100.00;100986.31;4996364;28;20042;-80
2023/07/04 04:34:59;;;;;;;30.53;5.90;;;;;;;12.23;100.00;100991.53;4979054;28;20034;-80
2023/07/04 04:37:24;;;;;;;28.80;6.40;;;;;;;12.24;100.00;100995.94;4962838;28;20040;-80
2023/07/04 04:39:50;;;;;;;28.00;6.30;;;;;;;12.24;100.00;101001.38;4946640;28;20506;-80
2023/07/04 04:42:15;;;;;;;38.83;6.03;;;;;;;12.26;100.00;100993.81;4996599;28;20043;-81
2023/07/04 04:44:41;;;;;;;32.13;6.53;;;;;;;12.29;100.00;100996.09;4979295;28;20045;-80
2023/07/04 04:47:07;;;;;;;24.98;5.70;;;;;;;12.34;100.00;101011.75;4978540;28;20042;-80
2023/07/04 04:49:33;;;;;;;29.93;6.47;;;;;;;12.39;100.00;101003.75;4996036;28;20379;-80
2023/07/04 04:51:58;;;;;;;34.63;6.15;;;;;;;12.41;100.00;101006.25;4978482;28;20089;-80
2023/07/04 04:54:24;;;;;;;28.67;5.60;;;;;;;12.44;100.00;100994.91;4978517;28;20060;-80
2023/07/04 04:56:50;;;;;;;32.37;6.00;;;;;;;12.48;100.00;100998.03;4962137;28;20402;-80
2023/07/04 04:59:15;;;;;;;31.83;6.47;;;;;;;12.54;100.00;100997.13;4962903;28;20513;-80
2023/07/04 05:01:41;;;;;;;25.57;5.20;;;;;;;12.58;100.00;101011.97;4959417;28;20054;-80
2023/07/04 05:04:06;;;;;;;30.23;5.50;;;;;;;12.61;100.00;101012.31;4958921;28;20074;-80
2023/07/04 05:06:32;;;;;;;32.93;5.90;;;;;;;12.71;100.00;101010.97;4974656;28;20475;-80
2023/07/04 05:08:58;;;;;;;26.17;5.70;;;;;;;12.76;100.00;101008.41;4975498;28;20270;-80
2023/07/04 05:11:23;;;;;;;28.42;5.40;;;;;;;12.76;100.00;101016.59;4976130;28;20031;-80
2023/07/04 05:13:50;;;;;;;27.83;5.57;;;;;;;12.77;100.00;101012.78;4974888;28;20130;-80
2023/07/04 05:16:20;;;;;;;27.23;6.07;;;;;;;12.78;100.00;101015.31;4991310;28;20094;-80
2023/07/04 05:18:47;;;;;;;25.60;5.22;;;;;;;12.79;100.00;101014.22;4975109;28;20455;-80
2023/07/04 05:21:16;;;;;;;33.53;5.77;;;;;;;12.83;100.00;101003.72;4974787;28;20057;-84
2023/07/04 05:23:44;;;;;;;22.17;5.68;;;;;;;12.92;100.00;101007.81;4974639;28;20487;-84
2023/07/04 05:26:12;;;;;;;23.80;4.93;;;;;;;13.05;100.00;101011.44;4990930;28;20427;-83
2023/07/04 05:28:38;;;;;;;29.52;6.00;;;;;;;13.18;100.00;101018.63;4974529;28;20030;-83
2023/07/04 05:31:08;;;;;;;24.02;5.10;;;;;;;13.24;100.00;101021.28;4974399;28;20065;-84
2023/07/04 05:33:33;;;;;;;29.53;5.30;;;;;;;13.29;100.00;101021.41;4975795;28;20045;-86
2023/07/04 05:36:12;;;;;;;27.50;5.28;;;;;;;13.35;100.00;101024.31;4990621;28;20034;-85
2023/07/04 05:38:38;;;;;;;26.98;5.60;;;;;;;13.38;100.00;101027.41;4975601;28;20109;-84
2023/07/04 05:41:09;;;;;;;25.67;5.88;;;;;;;13.47;100.00;101019.75;4974505;28;20054;-85
2023/07/04 05:43:34;;;;;;;28.03;5.03;;;;;;;13.57;100.00;101016.44;4976042;28;20066;-85
2023/07/04 05:46:00;;;;;;;24.42;5.30;;;;;;;13.61;100.00;101028.56;4958297;28;20073;-86
2023/07/04 05:48:26;;;;;;;23.33;4.22;;;;;;;13.69;100.00;101022.78;4975798;28;20027;-85
2023/07/04 05:50:57;;;;;;;30.57;4.90;;;;;;;13.75;100.00;101018.31;4975947;28;20041;-83
2023/07/04 05:53:25;;;;;;;25.65;5.00;;;;;;;13.78;100.00;101026.03;4974833;28;20505;-83
2023/07/04 05:55:52;;;;;;;23.40;4.87;;;;;;;13.87;100.00;101030.06;4974055;28;20085;-82
2023/07/04 05:58:19;;;;;;;21.35;5.22;;;;;;;13.95;100.00;101023.44;4973634;28;20533;-83
2023/07/04 06:00:45;;;;;;;25.48;4.40;;;;;;;13.99;100.00;101021.91;4990163;28;20463;-83
2023/07/04 06:03:10;;;;;;;24.10;5.18;;;;;;;14.07;100.00;101031.66;4973553;28;20058;-83
2023/07/04 06:05:38;;;;;;;22.53;4.17;;;;;;;14.13;100.00;101019.78;4975134;28;20478;-84
2023/07/04 06:08:04;;;;;;;20.75;5.20;;;;;;;14.18;100.00;101019.94;4958119;28;20035;-83
2023/07/04 06:10:29;;;;;;;27.93;4.70;;;;;;;14.18;100.00;101019.94;4974023;28;20039;-84
2023/07/04 06:12:54;;;;;;;23.03;4.33;;;;;;;14.21;100.00;101042.13;4958416;28;20093;-83
2023/07/04 06:15:20;;;;;;;20.40;3.78;;;;;;;14.26;100.00;101035.13;4974088;28;20455;-83
2023/07/04 06:17:45;;;;;;;23.40;4.40;;;;;;;14.29;100.00;101038.22;4973676;28;20121;-85
2023/07/04 06:20:11;;;;;;;26.53;5.33;;;;;;;14.33;100.00;101041.31;4974502;28;20468;-84
2023/07/04 06:22:37;;;;;;;25.60;5.18;;;;;;;14.38;100.00;101045.00;4957314;28;20151;-85
2023/07/04 06:25:04;;;;;;;18.93;4.13;;;;;;;14.45;100.00;101049.50;4973627;28;20142;-84
2023/07/04 06:27:30;;;;;;;20.40;3.92;;;;;;;14.51;100.00;101043.94;4974623;28;20035;-84
2023/07/04 06:29:56;;;;;;;19.00;3.70;;;;;;;14.51;100.00;101043.94;4973165;28;20138;-85
2023/07/04 06:32:22;;;;;;;28.38;4.13;;;;;;;14.57;100.00;101047.59;4973473;28;20034;-84
2023/07/04 06:34:47;;;;;;;21.33;4.03;;;;;;;14.59;100.00;101050.13;4974933;28;20031;-84
2023/07/04 06:37:13;;;;;;;22.47;4.13;;;;;;;14.66;100.00;101037.19;4941228;28;20042;-84
2023/07/04 06:39:38;;;;;;;15.50;3.70;;;;;;;14.79;100.00;101038.84;4974247;28;20082;-84
2023/07/04 06:42:04;;;;;;;16.63;3.60;;;;;;;14.88;100.00;101049.19;4974609;28;20501;-84
2023/07/04 06:44:29;;;;;;;20.98;3.28;;;;;;;14.97;100.00;101085.16;4956854;28;20037;-84
2023/07/04 06:46:54;;;;;;;15.27;3.33;;;;;;;15.02;100.00;101060.69;4973167;28;20118;-83
2023/07/04 06:49:20;;;;;;;20.50;3.40;;;;;;;15.04;100.00;101057.69;4974656;28;20471;-84
2023/07/04 06:51:45;;;;;;;17.97;3.87;;;;;;;15.03;96.87;101054.16;4973220;28;20115;-83
2023/07/04 06:54:11;;;;;;;15.02;2.97;;;;;;;15.14;98.80;101065.31;4973066;28;20047;-82
2023/07/04 06:56:37;;;;;;;14.87;2.87;;;;;;;15.34;99.34;101060.25;4941481;28;20058;-85
2023/07/04 06:59:03;;;;;;;20.52;3.47;;;;;;;15.55;97.52;101071.63;4972928;28;20066;-87
2023/07/04 07:01:29;;;;;;;19.93;3.20;;;;;;;15.66;95.66;101078.91;4944413;28;20212;-87
2023/07/04 07:03:55;;;;;;;14.67;2.90;;;;;;;15.66;92.35;101073.44;4945019;28;20038;-87
2023/07/04 07:06:21;;;;;;;16.02;2.78;;;;;;;15.62;92.26;101083.25;4980081;28;20045;-87
2023/07/04 07:08:46;;;;;;;14.67;3.00;;;;;;;15.52;88.14;101066.63;4980311;28;20495;-86
2023/07/04 07:11:18;;;;;;;14.52;2.72;;;;;;;15.49;89.43;101078.06;4948943;28;20026;-88
2023/07/04 07:13:44;;;;;;;16.00;2.70;;;;;;;15.57;89.59;101066.72;4996450;28;20521;-88
2023/07/04 07:16:12;;;;;;;14.20;3.05;;;;;;;15.66;89.40;101064.44;4996750;28;20030;-88
2023/07/04 07:18:39;;;;;;;16.77;3.15;;;;;;;15.68;86.12;101074.06;4996416;28;20105;-88
2023/07/04 07:21:05;;;;;;;18.93;3.20;;;;;;;15.73;88.69;101065.94;4964578;28;20049;-88
2023/07/04 07:23:33;;;;;;;10.82;3.10;;;;;;;15.84;87.81;101077.09;4980178;28;20054;-88
2023/07/04 07:26:00;;;;;;;15.38;2.70;;;;;;;15.95;87.04;101076.22;4996297;28;20132;-88
2023/07/04 07:28:27;;;;;;;14.85;2.95;;;;;;;16.06;85.46;101090.91;4997561;28;20081;-87
2023/07/04 07:31:04;;;;;;;12.73;3.53;;;;;;;16.09;86.87;101077.59;4963501;28;20030;-88
2023/07/04 07:33:31;;;;;;;14.60;2.60;;;;;;;16.17;83.89;101103.72;4996202;28;20042;-88
2023/07/04 07:36:07;;;;;;;13.25;3.22;;;;;;;16.23;83.91;101091.78;4997169;28;20030;-88
2023/07/04 07:38:33;;;;;;;15.88;3.65;;;;;;;16.37;81.84;101089.56;4997669;28;20034;-88
2023/07/04 07:40:58;;;;;;;13.67;2.70;;;;;;;16.46;82.67;101085.31;4997174;28;20490;-89
2023/07/04 07:43:24;;;;;;;10.33;2.73;;;;;;;16.46;79.20;101089.94;4979643;28;20058;-87
2023/07/04 07:45:49;;;;;;;11.57;3.05;;;;;;;16.42;79.29;101083.34;4980302;28;20121;-88
2023/07/04 07:48:16;;;;;;;13.07;2.90;;;;;;;16.35;79.13;101088.97;4979970;28;20481;-88
2023/07/04 07:50:43;;;;;;;18.20;3.00;;;;;;;16.27;80.14;101092.94;4980193;28;20061;-88
2023/07/04 07:53:08;;;;;;;12.20;3.10;;;;;;;16.25;78.11;101095.09;4995968;28;20042;-88
2023/07/04 07:55:33;;;;;;;9.55;2.97;;;;;;;16.23;78.61;101099.16;4965638;28;20034;-88
2023/07/04 07:57:59;;;;;;;11.87;2.80;;;;;;;16.23;76.70;101093.69;4979580;28;20471;-88
2023/07/04 08:00:24;;;;;;;13.57;2.90;;;;;;;16.37;76.88;101105.13;4979425;28;20117;-87
2023/07/04 08:02:49;;;;;;;14.47;3.07;;;;;;;16.49;76.11;101103.16;4979495;28;20054;-89
2023/07/04 08:05:16;;;;;;;14.03;2.80;;;;;;;16.56;74.24;101101.06;4963298;28;20042;-89
2023/07/04 08:07:41;;;;;;;17.10;3.38;;;;;;;16.58;75.78;101095.34;4997106;28;20031;-89
2023/07/04 08:10:07;;;;;;;11.33;2.57;;;;;;;16.63;74.97;101104.47;4979668;28;20466;-88
2023/07/04 08:12:33;;;;;;;17.10;3.10;;;;;;;16.76;75.29;101099.75;4997377;28;20042;-88
2023/07/04 08:14:58;;;;;;;11.45;2.65;;;;;;;16.83;72.73;101116.84;4979257;28;20027;-88
2023/07/04 08:17:24;;;;;;;9.70;2.10;;;;;;;16.80;71.59;101106.38;4963046;28;20080;-89
2023/07/04 08:19:49;;;;;;;10.87;2.80;;;;;;;16.76;70.32;101113.44;4996805;28;20458;-89
2023/07/04 08:22:15;;;;;;;13.10;2.87;;;;;;;16.73;69.23;101092.84;4996766;28;20034;-88
2023/07/04 08:24:40;;;;;;;11.33;2.47;;;;;;;16.81;68.55;101105.28;4995620;28;20031;-90
2023/07/04 08:27:06;;;;;;;11.33;2.63;;;;;;;16.90;70.10;101111.22;4996609;28;20300;-90
2023/07/04 08:29:31;;;;;;;13.00;2.67;;;;;;;16.92;67.89;101125.47;4947589;28;20106;-88
2023/07/04 08:31:59;;;;;;;12.33;2.40;;;;;;;17.01;68.49;101104.81;4994678;28;20041;-90
2023/07/04 08:34:25;;;;;;;11.88;1.73;;;;;;;17.09;66.46;101104.34;4963390;28;20065;-90
2023/07/04 08:36:51;;;;;;;9.85;2.50;;;;;;;17.21;66.91;101122.63;4963561;28;20478;-89
2023/07/04 08:39:19;;;;;;;7.90;1.90;;;;;;;17.19;64.71;101109.16;4995243;28;20375;-89
2023/07/04 08:41:56;;;;;;;9.05;2.40;;;;;;;17.10;64.29;101099.72;4978986;28;20022;-89
2023/07/04 08:44:35;;;;;;;7.35;2.15;;;;;;;17.12;63.88;101109.34;4979458;28;20418;-89
2023/07/04 08:47:00;;;;;;;10.37;2.20;;;;;;;17.12;66.23;101086.59;4996026;28;20026;-90
2023/07/04 08:49:29;;;;;;;9.60;1.92;;;;;;;17.30;65.20;101093.66;4962649;28;20035;-89
2023/07/04 08:52:06;;;;;;;9.40;2.40;;;;;;;17.60;65.07;101119.81;4996213;28;20040;-88
2023/07/04 08:54:33;;;;;;;9.35;2.25;;;;;;;17.70;62.82;101090.59;4979001;28;20034;-88
2023/07/04 08:57:07;;;;;;;9.20;1.87;;;;;;;17.73;59.72;101115.84;4995599;28;20088;-89
2023/07/04 08:59:41;;;;;;;6.95;1.80;;;;;;;17.80;59.25;101100.03;4995541;28;20486;-90
2023/07/04 09:02:29;;;;;;;7.15;1.50;;;;;;;17.94;61.27;101089.47;4978902;28;20061;-88
2023/07/04 09:05:17;;;;;;;9.80;2.30;;;;;;;18.14;59.39;101108.91;4978990;28;20467;-88
2023/07/04 09:07:55;;;;;;;12.27;2.17;;;;;;;18.14;58.09;101102.59;4995060;28;20061;-88
2023/07/04 09:10:40;;;;;;;8.10;2.20;;;;;;;18.27;58.81;101115.91;4978908;28;20485;-89
2023/07/04 09:13:15;;;;;;;9.60;2.15;;;;;;;18.34;56.05;101122.00;4994981;28;20030;-89
2023/07/04 09:15:46;;;;;;;11.55;3.00;;;;;;;18.50;57.25;101119.38;4978896;28;20049;-90
2023/07/04 09:18:28;;;;;;;13.25;2.75;;;;;;;18.72;58.67;101117.38;4995728;28;20121;-89
2023/07/04 09:21:03;;;;;;;9.38;2.40;;;;;;;18.62;58.42;101143.97;4978988;28;20111;-89
2023/07/04 09:23:29;;;;;;;9.37;2.50;;;;;;;18.58;57.80;101127.16;4979341;28;20490;-89
2023/07/04 09:25:57;;;;;;;8.07;2.40;;;;;;;18.73;58.50;101120.94;4994582;28;20069;-90
2023/07/04 09:28:24;;;;;;;14.70;2.75;;;;;;;19.06;58.11;101122.59;4994992;28;20090;-90
2023/07/04 09:30:52;;;;;;;11.45;2.80;;;;;;;19.22;54.19;101117.16;4978101;28;20045;-89
2023/07/04 09:33:21;;;;;;;11.05;2.55;;;;;;;19.07;56.20;101123.41;4995417;28;20030;-90
2023/07/04 09:35:48;;;;;;;8.00;2.60;;;;;;;19.09;55.24;101133.06;4994061;28;20350;-87
2023/07/04 09:38:13;;;;;;;9.88;2.50;;;;;;;19.08;54.42;101149.81;4994373;28;20394;-91
2023/07/04 09:40:45;;;;;;;8.10;2.67;;;;;;;19.12;54.89;101145.44;4993765;28;20027;-90
2023/07/04 09:43:23;;;;;;;7.87;2.43;;;;;;;19.31;55.26;101139.50;4977841;28;20030;-90
2023/07/04 09:45:49;;;;;;;10.07;2.78;;;;;;;19.73;55.66;101144.09;4994876;28;20030;-91
2023/07/04 09:48:26;;;;;;;10.27;2.83;;;;;;;19.90;55.23;101130.97;4978050;28;20360;-90
2023/07/04 09:50:51;;;;;;;12.45;2.80;;;;;;;19.89;53.70;101139.50;4994079;28;20479;-90
2023/07/04 09:53:19;;;;;;;8.53;2.63;;;;;;;19.94;54.08;101131.25;4994851;28;20054;-91
2023/07/04 09:56:05;;;;;;;11.38;2.53;;;;;;;20.00;52.95;101137.59;4977769;28;20034;-90
2023/07/04 09:58:31;;;;;;;8.00;2.30;;;;;;;19.96;51.23;101134.53;4994972;28;20035;-91
2023/07/04 10:01:10;;;;;;;6.38;2.00;;;;;;;20.05;48.17;101143.09;4994585;28;20026;-91
2023/07/04 10:03:40;;;;;;;5.72;1.83;;;;;;;20.03;46.90;101131.53;4995264;28;20470;-90
2023/07/04 10:06:06;;;;;;;9.37;1.83;;;;;;;19.92;49.17;101139.78;4977743;28;20494;-90
2023/07/04 10:08:53;;;;;;;9.63;2.03;;;;;;;20.10;49.96;101137.63;4977691;28;20034;-91
2023/07/04 10:11:29;;;;;;;7.55;2.38;;;;;;;20.27;50.56;101151.13;4977759;28;20030;-90
2023/07/04 10:14:09;;;;;;;9.60;1.98;;;;;;;20.11;50.72;101142.03;4995071;28;20065;-91
2023/07/04 10:16:36;;;;;;;8.77;2.20;;;;;;;20.25;51.05;101132.13;4977704;28;20054;-90
2023/07/04 10:19:10;;;;;;;11.10;2.13;;;;;;;20.67;51.62;101130.25;4978595;28;20030;-90
2023/07/04 10:21:46;;;;;;;11.43;2.47;;;;;;;20.64;50.24;101130.78;4994992;28;20022;-90
2023/07/04 10:24:17;;;;;;;10.55;2.20;;;;;;;20.53;52.08;101129.94;4995422;28;20037;-90
2023/07/04 10:26:54;;;;;;;11.90;2.50;;;;;;;20.46;51.45;101132.97;4977083;28;20065;-89
2023/07/04 10:29:46;;;;;;;14.05;2.40;;;;;;;20.78;52.22;101136.56;4993532;28;20030;-88
2023/07/04 10:32:15;;;;;;;9.63;2.40;;;;;;;20.92;49.76;101136.81;4976336;28;20042;-88
2023/07/04 10:34:43;;;;;;;9.30;2.00;;;;;;;20.84;49.43;101133.53;4993509;28;20459;-89
2023/07/04 10:37:31;;;;;;;7.40;2.03;;;;;;;20.86;48.18;101144.31;4994467;28;20061;-89
2023/07/04 10:40:00;;;;;;;5.70;1.88;;;;;;;20.92;47.55;101139.59;4977344;28;20022;-83
2023/07/04 10:42:38;;;;;;;10.30;1.98;;;;;;;21.25;48.07;101137.31;4994180;28;20066;-85
2023/07/04 10:45:10;;;;;;;7.47;1.73;;;;;;;21.53;46.71;101131.16;4992571;28;20065;-83
2023/07/04 10:47:39;;;;;;;14.10;2.13;;;;;;;21.66;47.42;101142.72;4976554;28;20029;-83
2023/07/04 10:50:15;;;;;;;9.85;1.83;;;;;;;21.59;47.21;101126.47;4976236;28;20034;-83
2023/07/04 10:52:43;;;;;;;6.43;1.73;;;;;;;21.76;45.69;101128.03;4994176;28;20080;-84
2023/07/04 10:55:20;;;;;;;9.23;2.30;;;;;;;21.81;46.39;101133.53;4976402;28;20077;-83
2023/07/04 10:57:56;;;;;;;6.03;1.93;;;;;;;22.00;46.26;101142.00;4992907;28;20061;-83
2023/07/04 11:00:42;;;;;;;8.90;2.60;;;;;;;22.28;45.43;101140.44;4993833;28;20081;-83
2023/07/04 11:03:50;;;;;;;7.63;2.03;;;;;;;22.17;46.21;101150.72;4992517;28;20054;-84
2023/07/04 11:06:31;;;;;;;13.02;1.88;;;;;;;21.94;45.21;101130.16;4992605;28;20088;-84
2023/07/04 11:09:00;;;;;;;8.85;1.55;;;;;;;21.99;45.64;101141.16;4992884;28;20101;-84
2023/07/04 11:11:29;;;;;;;12.87;2.20;;;;;;;22.00;45.10;101137.28;4976173;28;20041;-84
2023/07/04 11:14:01;;;;;;;9.60;1.90;;;;;;;22.13;44.83;101138.59;4976760;28;20034;-85
2023/07/04 11:16:31;;;;;;;6.53;1.92;;;;;;;22.14;44.65;101150.47;4993124;28;20096;-84
2023/07/04 11:19:16;;;;;;;7.13;1.88;;;;;;;22.65;44.19;101135.44;4993841;28;20022;-84
2023/07/04 11:22:05;;;;;;;9.00;2.08;;;;;;;22.76;44.43;101139.78;4993641;28;20030;-85
2023/07/04 11:24:35;;;;;;;8.33;1.83;;;;;;;23.19;42.81;101126.09;4994073;28;20089;-86